| time (UTC) | temp F | wind direction | speed knots | gust knots | rain 1hr in | rain 24hr in | rain mn in | humidity % | barometer mb |
| 20260502194129 | 52 | 117 | 0.0 | 0.0 | 0.00 | 1.97 | 0.39 | 94 | 1010.4 |
| 20260502193115 | 52 | 117 | 0.0 | 0.0 | 0.00 | 1.97 | 0.39 | 94 | 1010.4 |
| 20260502192127 | 52 | 117 | 0.0 | 0.0 | 0.00 | 1.97 | 0.39 | 94 | 1010.4 |
| 20260502191140 | 53 | 117 | 0.0 | 0.0 | 0.00 | 1.97 | 0.39 | 94 | 1010.5 |
| 20260502190124 | 53 | 117 | 0.0 | 0.9 | 0.00 | 1.97 | 0.39 | 94 | 1010.6 |
| 20260502185115 | 53 | 117 | 0.0 | 0.9 | 0.00 | 1.97 | 0.39 | 94 | 1010.6 |
| 20260502184129 | 53 | 117 | 0.0 | 0.9 | 0.00 | 1.97 | 0.39 | 94 | 1010.7 |
| 20260502183143 | 53 | 111 | 0.0 | 0.0 | 0.00 | 1.97 | 0.39 | 94 | 1010.8 |
| 20260502182127 | 53 | 111 | 0.0 | 0.0 | 0.00 | 1.97 | 0.39 | 94 | 1010.7 |
| 20260502181117 | 53 | 111 | 0.0 | 0.0 | 0.00 | 1.97 | 0.39 | 93 | 1010.8 |
| 20260502180123 | 53 | 111 | 0.0 | 0.0 | 0.00 | 1.97 | 0.39 | 94 | 1010.9 |
| 20260502170132 | 53 | 111 | 0.0 | 0.0 | 0.16 | 1.97 | 0.39 | 93 | 1011.6 |
| 20260502164130 | 52 | 111 | 0.0 | 0.0 | 0.24 | 1.93 | 0.39 | 93 | 1011.8 |
| 20260502162135 | 52 | 111 | 0.0 | 0.0 | 0.31 | 1.85 | 0.37 | 93 | 1011.9 |
| 20260502161144 | 52 | 111 | 0.0 | 0.0 | 0.35 | 1.81 | 0.36 | 93 | 1012.1 |
| 20260502160136 | 52 | 111 | 0.0 | 0.0 | 0.43 | 1.77 | 0.35 | 93 | 1012.2 |
| 20260502152114 | 52 | 111 | 0.0 | 1.7 | 0.59 | 1.50 | 0.30 | 92 | 1012.6 |
| 20260502151127 | 52 | 120 | 0.0 | 0.9 | 0.67 | 1.46 | 0.29 | 92 | 1012.7 |
| 20260502150112 | 52 | 136 | 0.0 | 0.9 | 0.71 | 1.34 | 0.27 | 92 | 1012.8 |
| 20260502140116 | 53 | 122 | 0.0 | 0.0 | 0.55 | 0.63 | 0.13 | 89 | 1013.3 |
| 20260502130125 | 55 | 117 | 0.0 | 0.0 | 0.08 | 0.08 | 0.02 | 84 | 1013.5 |
| 20260502123138 | 57 | 109 | 0.0 | 0.9 | 0.04 | 0.04 | 0.01 | 82 | 1013.9 |
| 20260502122150 | 57 | 101 | 0.0 | 0.0 | 0.04 | 0.04 | 0.01 | 80 | 1014.1 |
| 20260502121115 | 58 | 110 | 0.0 | 0.9 | 0.00 | 0.00 | 0.00 | 78 | 1014.3 |
| 20260502120130 | 59 | 111 | 0.0 | 0.9 | 0.00 | 0.00 | 0.00 | 74 | 1014.4 |
| 20260502115115 | 59 | 108 | 0.0 | 0.9 | 0.00 | 0.00 | 0.00 | 71 | 1014.6 |
| 20260502114128 | 60 | 117 | 0.0 | 1.7 | 0.00 | 0.00 | 0.00 | 70 | 1014.7 |
| 20260502113115 | 62 | 149 | 0.0 | 1.7 | 0.00 | 0.00 | 0.00 | 68 | 1014.8 |
| 20260502112128 | 62 | 113 | 0.0 | 2.6 | 0.00 | 0.00 | 0.00 | 68 | 1014.8 |
| 20260502111114 | 63 | 105 | 0.0 | 0.9 | 0.00 | 0.04 | 0.00 | 68 | 1015.0 |
| 20260502110125 | 63 | 111 | 0.0 | 1.7 | 0.00 | 0.04 | 0.00 | 68 | 1014.9 |
| 20260502105121 | 63 | 110 | 0.0 | 0.9 | 0.00 | 0.04 | 0.00 | 70 | 1015.2 |
| 20260502104127 | 62 | 127 | 0.0 | 0.9 | 0.00 | 0.04 | 0.00 | 74 | 1015.2 |
| 20260502103119 | 61 | 97 | 0.0 | 0.9 | 0.00 | 0.04 | 0.00 | 75 | 1015.3 |
| 20260502102131 | 60 | 99 | 0.0 | 0.9 | 0.00 | 0.04 | 0.00 | 76 | 1015.5 |
| 20260502101117 | 60 | 111 | 0.0 | 0.9 | 0.00 | 0.12 | 0.00 | 75 | 1015.7 |
| 20260502100110 | 61 | 84 | 0.0 | 0.9 | 0.00 | 0.12 | 0.00 | 76 | 1016.1 |
| 20260502091121 | 60 | 99 | 0.0 | 0.9 | 0.00 | 0.12 | 0.00 | 79 | 1016.0 |
| 20260502090127 | 60 | 113 | 0.0 | 2.6 | 0.00 | 0.12 | 0.00 | 80 | 1016.1 |
| 20260502071140 | 52 | 98 | 0.0 | 0.0 | 0.00 | 0.12 | 0.00 | 93 | 1016.8 |
| 20260502070110 | 52 | 98 | 0.0 | 0.0 | 0.00 | 0.12 | 0.00 | 94 | 1016.8 |
| 20260502065123 | 51 | 98 | 0.0 | 0.0 | 0.00 | 0.12 | 0.00 | 94 | 1017.0 |
| 20260502064135 | 51 | 98 | 0.0 | 0.0 | 0.00 | 0.12 | 0.00 | 94 | 1016.8 |
| 20260502063121 | 50 | 98 | 0.0 | 0.0 | 0.00 | 0.12 | 0.00 | 94 | 1016.9 |
| 20260502062113 | 50 | 98 | 0.0 | 0.0 | 0.00 | 0.12 | 0.00 | 94 | 1016.8 |
| 20260502061127 | 49 | 98 | 0.0 | 0.0 | 0.00 | 0.12 | 0.00 | 95 | 1016.9 |
| 20260502060118 | 49 | 98 | 0.0 | 0.0 | 0.00 | 0.12 | 0.00 | 95 | 1017.1 |
| 20260502055131 | 48 | 98 | 0.0 | 0.0 | 0.00 | 0.12 | 0.00 | 95 | 1017.1 |
| 20260502054118 | 47 | 98 | 0.0 | 0.0 | 0.00 | 0.12 | 0.00 | 94 | 1017.1 |
| 20260502053150 | 46 | 98 | 0.0 | 0.0 | 0.00 | 0.12 | 0.00 | 94 | 1017.2 |
| 20260502052122 | 46 | 98 | 0.0 | 0.0 | 0.00 | 0.12 | 0.00 | 93 | 1017.3 |
| 20260502051129 | 46 | 98 | 0.0 | 0.0 | 0.00 | 0.12 | 0.00 | 93 | 1017.4 |
| 20260502050123 | 46 | 98 | 0.0 | 0.0 | 0.00 | 0.12 | 0.00 | 93 | 1017.3 |
| 20260502045132 | 46 | 98 | 0.0 | 0.0 | 0.00 | 0.12 | 0.00 | 93 | 1017.4 |
| 20260502044118 | 47 | 98 | 0.0 | 0.0 | 0.00 | 0.12 | 0.00 | 93 | 1017.5 |
| 20260502043130 | 47 | 98 | 0.0 | 0.0 | 0.00 | 0.12 | 0.00 | 93 | 1017.5 |
| 20260502042116 | 47 | 98 | 0.0 | 0.0 | 0.00 | 0.12 | 0.00 | 93 | 1017.5 |
| 20260502041128 | 47 | 98 | 0.0 | 0.0 | 0.00 | 0.12 | 0.00 | 93 | 1017.5 |
| 20260502040142 | 47 | 98 | 0.0 | 0.0 | 0.00 | 0.12 | 0.00 | 93 | 1017.6 |
| 20260502035153 | 47 | 98 | 0.0 | 0.0 | 0.00 | 0.12 | 0.00 | 93 | 1017.5 |
| 20260502034118 | 47 | 98 | 0.0 | 0.0 | 0.00 | 0.12 | 0.00 | 93 | 1017.5 |
| 20260502033132 | 47 | 98 | 0.0 | 0.0 | 0.00 | 0.12 | 0.00 | 93 | 1017.5 |
| 20260502032117 | 47 | 98 | 0.0 | 0.0 | 0.00 | 0.12 | 0.00 | 93 | 1017.6 |
| 20260502031129 | 47 | 98 | 0.0 | 0.0 | 0.00 | 0.12 | 0.00 | 93 | 1017.5 |
| 20260502030117 | 47 | 98 | 0.0 | 0.0 | 0.00 | 0.12 | 0.00 | 93 | 1017.7 |
| 20260502025122 | 46 | 98 | 0.0 | 0.0 | 0.00 | 0.12 | 0.00 | 93 | 1017.8 |
| 20260502024115 | 46 | 98 | 0.0 | 0.0 | 0.00 | 0.12 | 0.00 | 92 | 1018.0 |
| 20260502023148 | 46 | 98 | 0.0 | 0.0 | 0.00 | 0.12 | 0.00 | 91 | 1018.1 |
| 20260502022114 | 46 | 98 | 0.0 | 0.0 | 0.00 | 0.12 | 0.00 | 91 | 1018.2 |
| 20260502021146 | 46 | 98 | 0.0 | 0.0 | 0.00 | 0.12 | 0.00 | 91 | 1018.3 |
| 20260502020137 | 47 | 98 | 0.0 | 0.0 | 0.00 | 0.12 | 0.00 | 91 | 1018.4 |
| 20260502015129 | 47 | 98 | 0.0 | 0.0 | 0.00 | 0.12 | 0.00 | 90 | 1018.5 |
| 20260502014122 | 47 | 98 | 0.0 | 0.0 | 0.00 | 0.12 | 0.00 | 90 | 1018.6 |
| 20260502013128 | 47 | 98 | 0.0 | 0.0 | 0.00 | 0.12 | 0.00 | 90 | 1018.7 |
| 20260502012120 | 48 | 98 | 0.0 | 0.0 | 0.00 | 0.12 | 0.00 | 90 | 1018.9 |
| 20260502011133 | 49 | 98 | 0.0 | 0.0 | 0.00 | 0.12 | 0.00 | 90 | 1018.9 |
| 20260502010121 | 49 | 98 | 0.0 | 0.0 | 0.00 | 0.12 | 0.00 | 90 | 1019.0 |
| 20260502005134 | 49 | 98 | 0.0 | 0.0 | 0.00 | 0.12 | 0.00 | 90 | 1019.1 |
| 20260502004120 | 49 | 98 | 0.0 | 0.0 | 0.00 | 0.12 | 0.00 | 90 | 1019.1 |
| 20260502003134 | 49 | 98 | 0.0 | 0.0 | 0.00 | 0.12 | 0.00 | 88 | 1019.1 |
| 20260502002147 | 50 | 98 | 0.0 | 0.0 | 0.00 | 0.12 | 0.00 | 88 | 1019.2 |
| 20260502001133 | 50 | 98 | 0.0 | 0.0 | 0.00 | 0.12 | 0.00 | 86 | 1019.2 |
| 20260502000144 | 50 | 98 | 0.0 | 0.0 | 0.00 | 0.12 | 0.00 | 86 | 1019.3 |
| 20260501235115 | 51 | 98 | 0.0 | 0.0 | 0.00 | 0.12 | 0.00 | 86 | 1019.3 |
| 20260501234128 | 51 | 98 | 0.0 | 0.0 | 0.00 | 0.12 | 0.00 | 86 | 1019.3 |
| 20260501233114 | 51 | 98 | 0.0 | 0.0 | 0.00 | 0.12 | 0.00 | 85 | 1019.3 |
| 20260501232126 | 51 | 98 | 0.0 | 0.0 | 0.00 | 0.12 | 0.00 | 85 | 1019.4 |
| 20260501231119 | 52 | 98 | 0.0 | 0.0 | 0.00 | 0.12 | 0.02 | 84 | 1019.4 |
| 20260501230116 | 52 | 98 | 0.0 | 0.0 | 0.00 | 0.12 | 0.02 | 83 | 1019.4 |
| 20260501225126 | 53 | 98 | 0.0 | 0.0 | 0.00 | 0.12 | 0.02 | 83 | 1019.4 |
| 20260501224113 | 53 | 98 | 0.0 | 0.0 | 0.00 | 0.12 | 0.02 | 82 | 1019.4 |
| 20260501223126 | 54 | 98 | 0.0 | 0.0 | 0.00 | 0.12 | 0.02 | 82 | 1019.6 |
| 20260501222112 | 54 | 98 | 0.0 | 0.0 | 0.00 | 0.12 | 0.02 | 82 | 1019.6 |
| 20260501221124 | 54 | 98 | 0.0 | 0.0 | 0.00 | 0.12 | 0.02 | 82 | 1019.8 |
| 20260501220111 | 54 | 98 | 0.0 | 0.0 | 0.00 | 0.12 | 0.02 | 80 | 1019.9 |
| 20260501215144 | 54 | 98 | 0.0 | 0.0 | 0.00 | 0.12 | 0.02 | 80 | 1019.8 |
| 20260501214116 | 54 | 98 | 0.0 | 0.0 | 0.00 | 0.12 | 0.02 | 80 | 1019.9 |
| 20260501213129 | 54 | 98 | 0.0 | 0.0 | 0.00 | 0.12 | 0.02 | 80 | 1019.8 |
| 20260501212114 | 54 | 98 | 0.0 | 0.0 | 0.00 | 0.12 | 0.02 | 80 | 1019.8 |
| 20260501211128 | 54 | 97 | 0.0 | 0.9 | 0.00 | 0.12 | 0.02 | 80 | 1019.8 |
| 20260501210131 | 54 | 120 | 0.0 | 0.0 | 0.00 | 0.12 | 0.02 | 79 | 1019.6 |
| 20260501205124 | 55 | 120 | 0.0 | 0.0 | 0.00 | 0.12 | 0.02 | 79 | 1019.5 |
| 20260501204138 | 55 | 120 | 0.0 | 0.0 | 0.00 | 0.12 | 0.02 | 78 | 1019.5 |
| 20260501203124 | 55 | 120 | 0.0 | 0.9 | 0.00 | 0.12 | 0.02 | 78 | 1019.5 |
| 20260501202137 | 55 | 127 | 0.0 | 0.0 | 0.00 | 0.12 | 0.02 | 78 | 1019.4 |
| 20260501201123 | 55 | 109 | 0.0 | 0.0 | 0.00 | 0.12 | 0.02 | 78 | 1019.3 |
| 20260501200136 | 55 | 109 | 0.0 | 0.0 | 0.00 | 0.12 | 0.02 | 78 | 1019.3 |
| 20260501195148 | 56 | 109 | 0.0 | 0.9 | 0.00 | 0.12 | 0.02 | 77 | 1019.1 |